This is the latest recevied weather packets stored in our database for station/object OE6ATD-13. If no packets are shown the sender has not sent any weather packets the latest 1 day(s).
| Time | Temp. | Humidity | Pressure | Rain* | Wind** | Luminosity | Snow |
|---|---|---|---|---|---|---|---|
| 1778008524 | 16.11° C | 64% | 1009.2 hPa | 0 mm | 0.45 m/s, 211° | 0 W/m² | - |
| 1778007920 | 16.67° C | 63% | 1009.2 hPa | 0 mm | 0.45 m/s, 207° | 0 W/m² | - |
| 1778007315 | 16.67° C | 63% | 1009.3 hPa | 0 mm | 1.34 m/s, 212° | 0 W/m² | - |
| 1778006726 | 16.67° C | 62% | 1009.2 hPa | 0 mm | 1.34 m/s, 221° | 0 W/m² | - |
| 1778006129 | 16.67° C | 62% | 1009.2 hPa | 0 mm | 1.34 m/s, 274° | 0 W/m² | - |
| 1778005524 | 16.67° C | 61% | 1009.3 hPa | 0 mm | 1.34 m/s, 273° | 0 W/m² | - |
| 1778004920 | 16.67° C | 61% | 1009.3 hPa | 0 mm | 1.34 m/s, 220° | 0 W/m² | - |
| 1778004316 | 17.22° C | 59% | 1009.4 hPa | 0 mm | 0 m/s | 3 W/m² | - |
| 1778003727 | 17.22° C | 55% | 1009.4 hPa | 0 mm | 0.45 m/s, 240° | 6 W/m² | - |
| 1778003123 | 17.78° C | 54% | 1009.3 hPa | 0 mm | 0.89 m/s, 286° | 9 W/m² | - |
| 1778002519 | 18.33° C | 53% | 1009.5 hPa | 0 mm | 0.45 m/s, 246° | 20 W/m² | - |
| 1778001929 | 18.33° C | 52% | 1009.5 hPa | 0 mm | 1.34 m/s, 251° | 48 W/m² | - |
| 1778001325 | 18.89° C | 51% | 1009.6 hPa | 0 mm | 0.45 m/s, 206° | 24 W/m² | - |
| 1778000721 | 20° C | 49% | 1009.6 hPa | 0 mm | 0.89 m/s, 261° | 30 W/m² | - |
| 1778000117 | 21.11° C | 48% | 1009.6 hPa | 0 mm | 0.89 m/s, 280° | 152 W/m² | - |
| 1777999528 | 21.11° C | 47% | 1009.6 hPa | 0 mm | 0.89 m/s, 288° | 174 W/m² | - |
| 1777998923 | 21.67° C | 46% | 1009.7 hPa | 0 mm | 0.89 m/s, 234° | 199 W/m² | - |
| 1777998325 | 21.67° C | 47% | 1009.8 hPa | 0 mm | 0.45 m/s, 252° | 230 W/m² | - |
| 1777997730 | 20.56° C | 47% | 1009.9 hPa | 0 mm | 1.34 m/s, 233° | 193 W/m² | - |
| 1777997116 | 20° C | 47% | 1010.1 hPa | 0 mm | 0.45 m/s, 229° | 144 W/m² | - |
| 1777996526 | 20.56° C | 47% | 1010.2 hPa | 0 mm | 0.45 m/s, 282° | 132 W/m² | - |
| 1777995922 | 20° C | 47% | 1010.1 hPa | 0 mm | 1.34 m/s, 299° | 135 W/m² | - |
| 1777995318 | 20° C | 47% | 1010 hPa | 0 mm | 0.89 m/s, 257° | 133 W/m² | - |
| 1777994730 | 20° C | 45% | 1010 hPa | 0 mm | 0.45 m/s, 239° | 152 W/m² | - |
| 1777994125 | 20° C | 45% | 1010 hPa | 0 mm | 1.34 m/s, 223° | 153 W/m² | - |
* Rain latest hour (hover to see other rain measurements)
** Current wind speed in m/s (hover to see current wind gust speed)